Time;durP1;ratioP1;P1;durP2;ratioP2;P2;SDS_P1;SDS_P2;PMS_P1;PMS_P2;Temp;Humidity;BMP_temperature;BMP_pressure;BME280_temperature;BME280_humidity;BME280_pressure;Samples;Min_cycle;Max_cycle;Signal;HPM_P1;HPM_P2
2023/04/11 00:01:21;;;;;;;0.20;0.20;;;;;;;9.11;57.10;100462.94;5075827;28;20476;-62
2023/04/11 00:03:51;;;;;;;0.30;0.30;;;;;;;9.18;57.80;100463.16;5074793;28;20075;-62
2023/04/11 00:06:19;;;;;;;0.20;0.20;;;;;;;9.11;57.72;100465.72;5074808;28;20028;-62
2023/04/11 00:08:46;;;;;;;0.20;0.20;;;;;;;9.01;58.27;100466.16;5074666;28;20036;-62
2023/04/11 00:11:14;;;;;;;0.30;0.30;;;;;;;9.08;57.50;100478.28;5074474;28;20029;-62
2023/04/11 00:13:44;;;;;;;0.20;0.20;;;;;;;9.09;57.53;100468.00;5075957;28;20029;-62
2023/04/11 00:16:10;;;;;;;0.20;0.20;;;;;;;9.03;58.01;100472.97;5074912;28;20116;-61
2023/04/11 00:18:43;;;;;;;0.20;0.20;;;;;;;9.04;58.72;100479.31;5074185;28;20024;-61
2023/04/11 00:21:09;;;;;;;0.20;0.20;;;;;;;8.92;58.75;100477.34;5074500;28;20032;-62
2023/04/11 00:23:40;;;;;;;0.20;0.20;;;;;;;8.82;59.16;100475.03;5074664;28;20047;-63
2023/04/11 00:26:06;;;;;;;0.30;0.30;;;;;;;8.69;58.44;100476.16;5074066;28;20028;-61
2023/04/11 00:28:37;;;;;;;0.20;0.20;;;;;;;8.84;59.21;100486.56;5074324;28;20028;-62
2023/04/11 00:31:08;;;;;;;0.20;0.20;;;;;;;8.91;59.43;100484.88;5074807;28;20047;-62
2023/04/11 00:33:35;;;;;;;0.20;0.20;;;;;;;8.96;59.35;100474.72;5073794;28;20052;-62
2023/04/11 00:36:04;;;;;;;0.20;0.20;;;;;;;8.90;58.77;100477.72;5074414;28;20518;-62
2023/04/11 00:38:32;;;;;;;0.20;0.20;;;;;;;8.90;59.54;100490.78;5075043;28;20032;-62
2023/04/11 00:41:00;;;;;;;0.20;0.20;;;;;;;8.83;59.94;100488.53;5074635;28;20028;-62
2023/04/11 00:43:28;;;;;;;0.20;0.20;;;;;;;8.87;59.28;100486.72;5074027;28;20418;-63
2023/04/11 00:45:56;;;;;;;0.20;0.20;;;;;;;8.72;60.41;100497.66;5073658;28;20036;-62
2023/04/11 00:48:27;;;;;;;0.20;0.20;;;;;;;8.75;60.59;100500.56;5073659;28;20028;-63
2023/04/11 00:50:55;;;;;;;0.30;0.30;;;;;;;8.65;61.08;100487.94;5073605;28;20032;-62
2023/04/11 00:53:31;;;;;;;0.30;0.30;;;;;;;8.65;61.41;100492.66;5074110;28;20128;-62
2023/04/11 00:56:00;;;;;;;0.20;0.20;;;;;;;8.56;62.05;100489.97;5073494;28;20032;-63
2023/04/11 00:58:28;;;;;;;0.30;0.30;;;;;;;8.49;61.70;100488.91;5072936;28;20072;-62
2023/04/11 01:00:54;;;;;;;0.30;0.30;;;;;;;8.43;61.93;100491.09;5073920;28;20128;-63
2023/04/11 01:03:23;;;;;;;0.20;0.20;;;;;;;8.43;63.86;100504.16;5073631;28;20123;-63
2023/04/11 01:05:53;;;;;;;0.20;0.20;;;;;;;8.50;62.59;100501.63;5073798;28;20029;-62
2023/04/11 01:08:21;;;;;;;0.20;0.20;;;;;;;8.42;62.97;100508.09;5073197;28;20120;-62
2023/04/11 01:10:49;;;;;;;0.20;0.20;;;;;;;8.33;63.30;100503.38;5073172;28;20028;-62
2023/04/11 01:13:19;;;;;;;0.20;0.20;;;;;;;8.35;63.02;100517.72;5073423;28;20047;-63
2023/04/11 01:15:47;;;;;;;0.20;0.20;;;;;;;8.41;63.81;100504.47;5074936;28;20082;-62
2023/04/11 01:18:14;;;;;;;0.30;0.30;;;;;;;8.40;64.26;100503.66;5073260;28;20460;-62
2023/04/11 01:20:39;;;;;;;0.20;0.20;;;;;;;8.43;64.11;100506.94;5073288;28;20024;-61
2023/04/11 01:23:07;;;;;;;0.20;0.20;;;;;;;8.44;64.07;100497.44;5072911;28;20067;-62
2023/04/11 01:25:33;;;;;;;0.20;0.20;;;;;;;8.40;63.06;100503.66;5074216;28;20016;-62
2023/04/11 01:28:03;;;;;;;0.28;0.28;;;;;;;8.35;63.20;100501.06;5072883;28;20036;-62
2023/04/11 01:30:28;;;;;;;0.20;0.20;;;;;;;8.32;63.55;100507.31;5072930;28;20032;-63
2023/04/11 01:32:59;;;;;;;0.20;0.20;;;;;;;8.29;64.58;100509.94;5073045;28;20036;-62
2023/04/11 01:35:24;;;;;;;0.20;0.20;;;;;;;8.21;64.98;100506.09;5074205;28;20102;-62
2023/04/11 01:37:53;;;;;;;0.20;0.20;;;;;;;8.17;64.30;100499.63;5073900;28;20456;-62
2023/04/11 01:40:22;;;;;;;0.20;0.20;;;;;;;8.20;63.91;100498.09;5073283;28;20021;-62
2023/04/11 01:42:53;;;;;;;0.30;0.30;;;;;;;8.12;65.03;100492.31;5074768;28;20043;-62
2023/04/11 01:45:22;;;;;;;0.20;0.20;;;;;;;8.04;65.56;100481.28;5072715;28;20029;-63
2023/04/11 01:47:50;;;;;;;0.20;0.20;;;;;;;7.97;65.01;100492.09;5072615;28;20032;-63
2023/04/11 01:50:15;;;;;;;0.20;0.20;;;;;;;8.00;65.37;100491.44;5072586;28;20107;-62
2023/04/11 01:52:46;;;;;;;0.20;0.20;;;;;;;7.99;65.94;100500.88;5072878;28;20174;-62
2023/04/11 01:55:15;;;;;;;0.20;0.20;;;;;;;8.04;66.03;100500.69;5072833;28;20028;-63
2023/04/11 01:57:43;;;;;;;0.30;0.30;;;;;;;8.02;64.46;100503.00;5072450;28;20057;-62
2023/04/11 02:00:14;;;;;;;0.22;0.22;;;;;;;8.04;65.13;100495.13;5072972;28;20387;-62
2023/04/11 02:02:45;;;;;;;0.20;0.20;;;;;;;8.16;64.55;100492.44;5072445;28;20482;-62
2023/04/11 02:05:13;;;;;;;0.20;0.20;;;;;;;8.15;64.86;100499.16;5072502;28;20505;-62
2023/04/11 02:07:41;;;;;;;0.30;0.30;;;;;;;8.04;65.41;100500.69;5072422;28;20039;-62
2023/04/11 02:10:09;;;;;;;0.20;0.20;;;;;;;8.01;65.04;100495.84;5072985;28;20028;-62
2023/04/11 02:12:40;;;;;;;0.20;0.20;;;;;;;7.95;65.24;100497.19;5072453;28;20040;-62
2023/04/11 02:15:09;;;;;;;0.20;0.20;;;;;;;7.90;65.38;100500.16;5073020;28;20038;-62
2023/04/11 02:17:43;;;;;;;0.20;0.20;;;;;;;7.87;65.63;100507.97;5073653;28;20036;-62
2023/04/11 02:20:13;;;;;;;0.20;0.20;;;;;;;7.88;63.79;100504.09;5072231;28;20103;-62
2023/04/11 02:22:38;;;;;;;0.20;0.20;;;;;;;7.76;64.99;100501.22;5073572;28;20032;-61
2023/04/11 02:25:05;;;;;;;0.20;0.20;;;;;;;7.75;65.62;100509.88;5072895;28;20039;-61
2023/04/11 02:27:32;;;;;;;0.20;0.20;;;;;;;7.80;64.81;100502.16;5074114;28;20119;-61
2023/04/11 02:29:59;;;;;;;0.20;0.20;;;;;;;7.76;64.96;100501.22;5072560;28;20029;-62
2023/04/11 02:32:29;;;;;;;0.20;0.20;;;;;;;7.68;65.61;100491.03;5072269;28;20033;-61
2023/04/11 02:34:59;;;;;;;0.20;0.20;;;;;;;7.71;66.54;100493.09;5072810;28;20076;-62
2023/04/11 02:37:27;;;;;;;0.20;0.20;;;;;;;7.69;65.87;100484.31;5073752;28;20120;-61
2023/04/11 02:39:57;;;;;;;0.20;0.20;;;;;;;7.68;67.02;100477.16;5072092;28;20467;-62
2023/04/11 02:42:23;;;;;;;0.22;0.22;;;;;;;7.63;66.59;100471.81;5072446;28;20494;-62
2023/04/11 02:44:53;;;;;;;0.20;0.20;;;;;;;7.60;67.19;100475.25;5072077;28;20067;-61
2023/04/11 02:47:21;;;;;;;0.20;0.20;;;;;;;7.49;66.64;100469.28;5072565;28;20033;-63
2023/04/11 02:49:49;;;;;;;0.20;0.20;;;;;;;7.64;66.34;100470.69;5072009;28;20035;-62
2023/04/11 02:52:18;;;;;;;0.20;0.20;;;;;;;7.62;66.78;100472.97;5072006;28;20085;-62
2023/04/11 02:54:47;;;;;;;0.30;0.30;;;;;;;7.60;67.25;100467.75;5072514;28;20460;-62
2023/04/11 02:57:12;;;;;;;0.20;0.20;;;;;;;7.67;66.66;100470.00;5073041;28;20045;-62
2023/04/11 02:59:41;;;;;;;0.30;0.30;;;;;;;7.67;66.78;100472.78;5075908;28;20470;-61
2023/04/11 03:02:06;;;;;;;0.20;0.20;;;;;;;7.70;65.93;100474.88;5075962;28;20032;-61
2023/04/11 03:04:38;;;;;;;0.30;0.30;;;;;;;7.73;66.42;100471.44;5076242;28;20371;-61
2023/04/11 03:07:06;;;;;;;0.20;0.20;;;;;;;7.64;66.51;100464.31;5075604;28;20028;-61
2023/04/11 03:09:31;;;;;;;0.20;0.20;;;;;;;7.62;67.75;100464.69;5075495;28;20020;-62
2023/04/11 03:12:00;;;;;;;0.20;0.20;;;;;;;7.58;67.87;100463.72;5075486;28;20124;-62
2023/04/11 03:14:28;;;;;;;0.20;0.20;;;;;;;7.70;67.17;100474.06;5075440;28;20032;-62
2023/04/11 03:16:58;;;;;;;0.30;0.30;;;;;;;7.68;66.89;100468.06;5075386;28;20127;-61
2023/04/11 03:19:24;;;;;;;0.30;0.30;;;;;;;7.71;67.49;100470.13;5075261;28;20110;-61
2023/04/11 03:21:49;;;;;;;0.20;0.20;;;;;;;7.69;66.55;100477.97;5075322;28;20064;-61
2023/04/11 03:24:21;;;;;;;0.20;0.20;;;;;;;7.64;66.92;100476.22;5075827;28;20067;-62
2023/04/11 03:26:49;;;;;;;0.20;0.20;;;;;;;7.59;66.76;100474.44;5075238;28;20107;-62
2023/04/11 03:29:15;;;;;;;0.30;0.30;;;;;;;7.59;67.02;100471.69;5075207;28;20039;-63
2023/04/11 03:31:45;;;;;;;0.30;0.30;;;;;;;7.55;67.76;100478.22;5075301;28;20127;-62
2023/04/11 03:34:13;;;;;;;0.20;0.20;;;;;;;7.52;67.79;100478.91;5075751;28;20024;-61
2023/04/11 03:36:39;;;;;;;0.20;0.20;;;;;;;7.47;67.18;100473.56;5075021;28;20044;-61
2023/04/11 03:39:04;;;;;;;0.20;0.20;;;;;;;7.50;68.04;100475.66;5074906;28;20064;-61
2023/04/11 03:41:32;;;;;;;0.30;0.30;;;;;;;7.46;68.57;100474.72;5075157;28;20060;-63
2023/04/11 03:44:00;;;;;;;0.20;0.20;;;;;;;7.46;67.96;100463.63;5075219;28;20032;-61
2023/04/11 03:46:28;;;;;;;0.30;0.30;;;;;;;7.40;68.21;100464.94;5075133;28;20032;-62
2023/04/11 03:48:54;;;;;;;0.20;0.20;;;;;;;7.40;68.53;100449.16;5074864;28;20033;-61
2023/04/11 03:51:27;;;;;;;0.20;0.20;;;;;;;7.41;68.98;100455.53;5074769;28;20063;-61
2023/04/11 03:53:55;;;;;;;0.30;0.30;;;;;;;7.46;68.78;100458.09;5074768;28;20028;-61
2023/04/11 03:56:23;;;;;;;0.30;0.30;;;;;;;7.43;67.98;100458.75;5074725;28;20025;-62
2023/04/11 03:58:49;;;;;;;0.30;0.30;;;;;;;7.41;68.46;100444.44;5074127;28;20079;-62
2023/04/11 04:01:20;;;;;;;0.20;0.20;;;;;;;7.36;68.25;100448.22;5074898;28;20075;-63
2023/04/11 04:03:48;;;;;;;0.20;0.20;;;;;;;7.32;68.79;100453.59;5074553;28;20062;-62
2023/04/11 04:06:16;;;;;;;0.20;0.20;;;;;;;7.32;70.12;100453.59;5074794;28;20028;-61
2023/04/11 04:08:45;;;;;;;0.20;0.20;;;;;;;7.41;68.78;100458.28;5074263;28;20460;-61
2023/04/11 04:11:13;;;;;;;0.30;0.30;;;;;;;7.31;69.25;100449.22;5074401;28;20131;-63
2023/04/11 04:13:38;;;;;;;0.30;0.30;;;;;;;7.21;69.37;100457.09;5074919;28;20107;-63
2023/04/11 04:16:04;;;;;;;0.20;0.20;;;;;;;7.35;68.44;100454.91;5074793;28;20056;-61
2023/04/11 04:18:32;;;;;;;0.20;0.20;;;;;;;7.24;68.81;100448.91;5074002;28;20479;-62
2023/04/11 04:20:58;;;;;;;0.25;0.25;;;;;;;7.18;69.18;100450.25;5074426;28;20090;-61
2023/04/11 04:23:24;;;;;;;0.20;0.20;;;;;;;7.08;70.25;100456.16;5074491;28;20032;-63
2023/04/11 04:25:53;;;;;;;0.20;0.20;;;;;;;7.19;70.21;100459.38;5074139;28;20036;-64
2023/04/11 04:28:21;;;;;;;0.20;0.20;;;;;;;7.16;69.94;100449.78;5074034;28;20028;-62
2023/04/11 04:30:52;;;;;;;0.20;0.20;;;;;;;7.13;71.02;100455.16;5073928;28;20066;-62
2023/04/11 04:33:23;;;;;;;0.30;0.30;;;;;;;7.12;71.00;100454.34;5074610;28;20074;-61
2023/04/11 04:35:56;;;;;;;0.20;0.20;;;;;;;7.21;70.62;100451.56;5074527;28;20028;-62
2023/04/11 04:38:24;;;;;;;0.20;0.20;;;;;;;7.23;70.14;100441.75;5075312;28;20024;-63
2023/04/11 04:40:55;;;;;;;0.30;0.30;;;;;;;7.26;69.38;100443.06;5075900;28;20168;-64
2023/04/11 04:43:25;;;;;;;0.30;0.30;;;;;;;7.21;70.03;100433.00;5073842;28;20024;-61
2023/04/11 04:45:57;;;;;;;0.30;0.30;;;;;;;7.24;70.54;100440.59;5073769;28;20093;-63
2023/04/11 04:48:27;;;;;;;0.30;0.30;;;;;;;7.35;69.31;100435.53;5075520;28;20120;-63
2023/04/11 04:50:55;;;;;;;0.30;0.30;;;;;;;7.37;69.94;100443.50;5075505;28;20024;-64
2023/04/11 04:53:26;;;;;;;0.20;0.20;;;;;;;7.61;70.54;100443.66;5075957;28;20033;-63
2023/04/11 04:55:53;;;;;;;0.20;0.20;;;;;;;8.43;67.65;100445.94;5074322;28;20039;-61
2023/04/11 04:58:19;;;;;;;0.20;0.20;;;;;;;9.12;62.95;100434.81;5073333;28;20110;-62
2023/04/11 05:00:54;;;;;;;0.20;0.20;;;;;;;9.72;60.76;100440.66;5074170;28;20394;-63
2023/04/11 05:03:21;;;;;;;0.20;0.20;;;;;;;10.45;58.33;100445.16;5074945;28;20036;-65
2023/04/11 05:05:47;;;;;;;0.20;0.20;;;;;;;11.09;56.43;100441.28;5073311;28;20024;-62
2023/04/11 05:08:17;;;;;;;0.20;0.20;;;;;;;11.78;53.88;100438.91;5074800;28;20024;-61
2023/04/11 05:10:44;;;;;;;0.20;0.20;;;;;;;12.38;50.92;100450.53;5073259;28;20025;-61
2023/04/11 05:13:13;;;;;;;0.20;0.20;;;;;;;12.79;48.77;100459.28;5073152;28;20078;-62
2023/04/11 05:15:41;;;;;;;0.30;0.30;;;;;;;13.38;47.29;100452.34;5072817;28;20039;-61
2023/04/11 05:18:11;;;;;;;0.20;0.20;;;;;;;13.91;46.29;100449.53;5073017;28;20025;-63
2023/04/11 05:20:40;;;;;;;0.20;0.20;;;;;;;14.55;45.38;100455.94;5072267;28;20024;-61
2023/04/11 05:23:08;;;;;;;0.20;0.20;;;;;;;15.08;43.95;100447.25;5072991;28;20052;-61
2023/04/11 05:25:36;;;;;;;0.20;0.20;;;;;;;15.43;41.77;100445.91;5073234;28;20105;-61
2023/04/11 05:28:03;;;;;;;0.20;0.20;;;;;;;15.93;41.29;100443.47;5073217;28;20046;-62
2023/04/11 05:30:31;;;;;;;0.20;0.20;;;;;;;16.27;39.86;100448.81;5072809;28;20025;-62
2023/04/11 05:32:58;;;;;;;0.20;0.20;;;;;;;16.68;38.28;100446.56;5072997;28;20036;-62
2023/04/11 05:35:27;;;;;;;0.20;0.20;;;;;;;16.98;38.44;100461.06;5072753;28;20119;-62
2023/04/11 05:37:57;;;;;;;0.20;0.20;;;;;;;17.19;37.52;100465.09;5072528;28;20058;-62
2023/04/11 05:40:27;;;;;;;0.20;0.20;;;;;;;17.59;35.99;100472.31;5072416;28;20067;-62
2023/04/11 05:42:55;;;;;;;0.20;0.20;;;;;;;17.78;36.24;100483.16;5072385;28;20032;-63
2023/04/11 05:45:26;;;;;;;0.20;0.20;;;;;;;18.19;36.34;100470.59;5072451;28;20089;-62
2023/04/11 05:47:55;;;;;;;0.20;0.20;;;;;;;18.63;34.32;100475.63;5073103;28;20025;-62
2023/04/11 05:50:23;;;;;;;0.20;0.20;;;;;;;18.86;34.45;100463.84;5073318;28;20370;-62
2023/04/11 05:52:49;;;;;;;0.20;0.20;;;;;;;18.76;32.66;100468.34;5072105;28;20020;-64
2023/04/11 05:55:15;;;;;;;0.20;0.20;;;;;;;19.13;33.21;100475.34;5072407;28;20082;-62
2023/04/11 05:57:41;;;;;;;0.20;0.20;;;;;;;19.29;32.12;100472.81;5072054;28;20052;-62
2023/04/11 06:00:15;;;;;;;0.20;0.20;;;;;;;19.46;32.38;100478.72;5072283;28;20116;-63
2023/04/11 06:02:43;;;;;;;0.20;0.20;;;;;;;19.76;31.66;100470.41;5072057;28;20127;-62
2023/04/11 06:05:15;;;;;;;0.20;0.20;;;;;;;20.28;30.58;100473.03;5073780;28;20036;-62
2023/04/11 06:07:44;;;;;;;0.20;0.20;;;;;;;20.53;30.16;100492.53;5072198;28;20032;-63
2023/04/11 06:10:12;;;;;;;0.20;0.20;;;;;;;20.54;29.71;100490.50;5071950;28;20052;-63
2023/04/11 06:12:40;;;;;;;0.20;0.20;;;;;;;20.60;29.81;100491.63;5072202;28;20029;-62
2023/04/11 06:15:10;;;;;;;0.20;0.20;;;;;;;19.79;29.63;100486.47;5072721;28;20029;-63
2023/04/11 06:17:39;;;;;;;0.20;0.20;;;;;;;20.46;29.73;100488.97;5072201;28;20494;-63
2023/04/11 06:20:07;;;;;;;0.20;0.20;;;;;;;20.63;29.39;100497.25;5072111;28;20060;-62
2023/04/11 06:22:39;;;;;;;0.20;0.20;;;;;;;20.37;28.95;100507.22;5072536;28;20383;-64
2023/04/11 06:25:05;;;;;;;0.20;0.20;;;;;;;20.06;27.94;100505.56;5072021;28;20475;-62
2023/04/11 06:27:33;;;;;;;0.20;0.20;;;;;;;20.26;28.15;100515.03;5072573;28;20033;-62
2023/04/11 06:30:01;;;;;;;0.20;0.20;;;;;;;20.18;28.60;100499.38;5072731;28;20039;-63
2023/04/11 06:32:27;;;;;;;0.20;0.20;;;;;;;20.33;28.56;100495.16;5075280;28;20036;-63
2023/04/11 06:34:53;;;;;;;0.20;0.20;;;;;;;19.79;28.56;100492.13;5076200;28;20029;-63
2023/04/11 06:37:20;;;;;;;0.20;0.20;;;;;;;19.49;29.00;100473.00;5076061;28;20052;-63
2023/04/11 06:39:46;;;;;;;0.20;0.20;;;;;;;19.88;29.05;100492.44;5076056;28;20032;-63
2023/04/11 06:42:15;;;;;;;0.20;0.20;;;;;;;19.86;28.84;100486.41;5076093;28;20025;-62
2023/04/11 06:44:47;;;;;;;0.20;0.20;;;;;;;20.06;29.14;100495.06;5076700;28;20035;-62
2023/04/11 06:47:12;;;;;;;0.20;0.20;;;;;;;20.20;28.83;100499.78;5077263;28;20052;-62
2023/04/11 06:49:41;;;;;;;0.20;0.20;;;;;;;20.41;28.52;100498.72;5075640;28;20074;-62
2023/04/11 06:52:06;;;;;;;0.20;0.20;;;;;;;20.96;28.05;100502.44;5076834;28;20039;-63
2023/04/11 06:54:34;;;;;;;0.20;0.20;;;;;;;20.68;28.07;100493.16;5075801;28;20379;-63
2023/04/11 06:57:04;;;;;;;0.20;0.20;;;;;;;20.79;28.39;100485.31;5080975;28;20052;-62
2023/04/11 06:59:31;;;;;;;0.20;0.20;;;;;;;21.05;27.64;100492.22;5099287;28;20028;-63
2023/04/11 07:01:57;;;;;;;0.20;0.20;;;;;;;20.52;26.86;100490.13;5099608;28;20062;-63
2023/04/11 07:04:25;;;;;;;0.20;0.20;;;;;;;20.92;27.33;100489.16;5099341;28;20453;-63
2023/04/11 07:06:50;;;;;;;0.20;0.20;;;;;;;20.81;28.47;100490.53;5117355;28;20134;-62
2023/04/11 07:09:16;;;;;;;0.20;0.20;;;;;;;21.15;26.95;100484.78;5099318;28;20518;-63
2023/04/11 07:11:45;;;;;;;0.20;0.20;;;;;;;21.38;26.83;100499.00;5098933;28;20058;-62
2023/04/11 07:14:15;;;;;;;0.20;0.20;;;;;;;21.21;27.14;100493.59;5098980;28;20085;-63
2023/04/11 07:16:43;;;;;;;0.20;0.20;;;;;;;21.45;26.84;100495.22;5099406;28;20043;-62
2023/04/11 07:19:08;;;;;;;0.20;0.20;;;;;;;21.82;26.48;100488.53;5098732;28;20023;-62
2023/04/11 07:21:37;;;;;;;0.20;0.20;;;;;;;21.17;27.63;100488.78;5099340;28;20077;-63
2023/04/11 07:24:04;;;;;;;0.20;0.20;;;;;;;20.52;28.24;100488.09;5098867;28;20027;-63
2023/04/11 07:26:31;;;;;;;0.20;0.20;;;;;;;20.05;28.91;100501.16;5099348;28;20047;-62
2023/04/11 07:29:03;;;;;;;0.20;0.20;;;;;;;19.81;28.60;100495.31;5116843;28;20035;-63
2023/04/11 07:31:28;;;;;;;0.20;0.20;;;;;;;20.38;28.82;100494.69;5117155;28;20031;-63
2023/04/11 07:33:54;;;;;;;0.20;0.20;;;;;;;21.02;28.17;100503.56;5099023;28;20039;-63
2023/04/11 07:36:24;;;;;;;0.20;0.20;;;;;;;20.71;28.18;100499.97;5098658;28;20039;-62
2023/04/11 07:38:55;;;;;;;0.20;0.20;;;;;;;20.89;27.85;100494.88;5116259;28;20055;-62
2023/04/11 07:41:20;;;;;;;0.20;0.20;;;;;;;21.58;27.86;100501.09;5116909;28;20024;-62
2023/04/11 07:43:46;;;;;;;0.20;0.20;;;;;;;22.10;26.64;100503.38;5097628;28;20030;-62
2023/04/11 07:46:13;;;;;;;0.20;0.20;;;;;;;22.42;26.65;100500.72;5098261;28;20440;-62
2023/04/11 07:48:43;;;;;;;0.20;0.20;;;;;;;21.48;26.91;100497.22;5098735;28;20059;-62
2023/04/11 07:51:08;;;;;;;0.20;0.20;;;;;;;22.39;25.94;100501.63;5098159;28;20035;-61
2023/04/11 07:53:36;;;;;;;0.20;0.20;;;;;;;21.59;26.41;100502.69;5098396;28;20030;-62
2023/04/11 07:56:03;;;;;;;0.20;0.20;;;;;;;21.22;27.42;100479.00;5098041;28;20032;-62
2023/04/11 07:58:31;;;;;;;0.20;0.20;;;;;;;19.94;28.81;100495.63;5097584;28;20086;-62
2023/04/11 08:01:01;;;;;;;0.20;0.20;;;;;;;19.24;29.96;100484.53;5099208;28;20050;-64
2023/04/11 08:03:27;;;;;;;0.20;0.20;;;;;;;18.97;30.38;100480.72;5098734;28;20496;-65
2023/04/11 08:05:55;;;;;;;0.20;0.20;;;;;;;18.89;30.96;100484.78;5098931;28;20024;-63
2023/04/11 08:08:20;;;;;;;0.20;0.20;;;;;;;20.04;29.13;100477.75;5097818;28;20032;-63
2023/04/11 08:10:48;;;;;;;0.20;0.20;;;;;;;20.37;28.61;100473.31;5098325;28;20031;-62
2023/04/11 08:13:18;;;;;;;0.20;0.20;;;;;;;19.91;29.36;100481.53;5097983;28;20035;-61
2023/04/11 08:15:46;;;;;;;0.20;0.20;;;;;;;21.11;28.74;100467.88;5098153;28;20030;-62
2023/04/11 08:18:12;;;;;;;0.20;0.20;;;;;;;20.42;28.35;100467.19;5115827;28;20037;-62
2023/04/11 08:20:39;;;;;;;0.20;0.20;;;;;;;21.44;27.41;100468.97;5097421;28;20031;-62
2023/04/11 08:23:07;;;;;;;0.20;0.20;;;;;;;21.12;28.71;100474.31;5098361;28;20046;-61
2023/04/11 08:25:33;;;;;;;0.20;0.20;;;;;;;21.89;26.30;100477.06;5116035;28;20363;-62
2023/04/11 08:28:01;;;;;;;0.15;0.15;;;;;;;20.73;27.35;100452.28;5097404;28;20028;-62
2023/04/11 08:30:26;;;;;;;0.20;0.20;;;;;;;20.35;27.80;100456.00;5097321;28;20488;-61
2023/04/11 08:32:52;;;;;;;0.20;0.20;;;;;;;19.45;28.82;100449.69;5097364;28;20027;-60
2023/04/11 08:35:19;;;;;;;0.20;0.20;;;;;;;18.78;30.16;100454.63;5097719;28;20066;-64
2023/04/11 08:37:59;;;;;;;0.20;0.20;;;;;;;18.74;30.11;100461.50;5097264;28;20023;-67
2023/04/11 08:41:46;;;;;;;;;;;;;;;;;;;;;
2023/04/11 08:47:07;;;;;;;0.20;0.20;;;;;;;20.65;27.83;100452.38;5115520;28;20038;-60
2023/04/11 08:49:33;;;;;;;0.20;0.20;;;;;;;20.55;27.42;100444.03;5115548;28;20067;-61
2023/04/11 08:52:02;;;;;;;0.20;0.20;;;;;;;20.04;27.94;100446.69;5097342;28;20050;-63
2023/04/11 08:54:30;;;;;;;0.20;0.20;;;;;;;20.13;28.42;100447.00;5097123;28;20051;-61
2023/04/11 08:56:55;;;;;;;0.20;0.20;;;;;;;20.65;28.56;100446.72;5096879;28;20038;-61
2023/04/11 08:59:26;;;;;;;0.20;0.20;;;;;;;20.50;27.85;100450.16;5097388;28;20019;-63
2023/04/11 09:02:10;;;;;;;0.20;0.20;;;;;;;20.28;28.38;100441.94;5096819;28;20079;-62
2023/04/11 09:04:41;;;;;;;0.10;0.10;;;;;;;21.20;27.77;100439.03;5096753;28;20035;-63
2023/04/11 09:07:07;;;;;;;0.20;0.20;;;;;;;20.90;27.91;100440.72;5096466;28;20028;-63
2023/04/11 09:09:35;;;;;;;0.20;0.20;;;;;;;20.16;28.61;100448.16;5097195;28;20031;-64
2023/04/11 09:12:04;;;;;;;0.20;0.20;;;;;;;20.42;28.42;100444.59;5096698;28;20028;-63
2023/04/11 09:14:30;;;;;;;0.20;0.20;;;;;;;20.63;28.50;100442.72;5096560;28;20020;-62
2023/04/11 09:16:58;;;;;;;0.10;0.10;;;;;;;21.08;28.21;100446.06;5096476;28;20031;-64
2023/04/11 09:19:29;;;;;;;0.20;0.20;;;;;;;21.45;27.31;100442.25;5096950;28;20023;-63
2023/04/11 09:21:59;;;;;;;0.10;0.10;;;;;;;21.74;27.15;100441.75;5096475;28;20028;-64
2023/04/11 09:24:25;;;;;;;0.20;0.20;;;;;;;22.00;27.23;100436.38;5096316;28;20034;-63
2023/04/11 09:27:06;;;;;;;0.20;0.20;;;;;;;22.86;25.94;100424.81;5096490;28;20363;-62
2023/04/11 09:29:38;;;;;;;0.17;0.17;;;;;;;23.13;25.90;100426.66;5096476;28;20020;-64
2023/04/11 09:32:07;;;;;;;0.10;0.10;;;;;;;22.85;26.00;100436.59;5096849;28;20020;-64
2023/04/11 09:34:36;;;;;;;0.10;0.10;;;;;;;23.14;25.77;100431.06;5114197;28;20669;-64
2023/04/11 09:37:02;;;;;;;0.15;0.15;;;;;;;22.36;27.01;100425.13;5096423;28;20034;-64
2023/04/11 09:39:31;;;;;;;0.10;0.10;;;;;;;22.46;27.21;100424.91;5096294;28;20024;-63
2023/04/11 09:42:01;;;;;;;0.10;0.10;;;;;;;21.81;27.79;100430.28;5114556;28;20027;-63
2023/04/11 09:44:36;;;;;;;0.15;0.15;;;;;;;22.53;26.88;100434.50;5096127;28;20024;-63
2023/04/11 09:47:04;;;;;;;0.20;0.20;;;;;;;22.00;27.86;100436.38;5096217;28;20104;-64
2023/04/11 09:49:33;;;;;;;0.10;0.10;;;;;;;22.70;27.14;100421.97;5096069;28;20534;-63
2023/04/11 09:52:00;;;;;;;0.13;0.13;;;;;;;23.41;26.38;100420.22;5095929;28;20020;-64
2023/04/11 09:54:26;;;;;;;0.15;0.15;;;;;;;23.09;26.55;100420.25;5095897;28;20466;-63
2023/04/11 09:56:56;;;;;;;0.20;0.20;;;;;;;23.46;26.25;100404.69;5095634;28;20032;-64
2023/04/11 09:59:22;;;;;;;0.17;0.17;;;;;;;23.26;26.31;100413.31;5095519;28;20020;-62
2023/04/11 10:01:52;;;;;;;0.10;0.10;;;;;;;22.32;27.59;100408.22;5095411;28;20058;-63
2023/04/11 10:04:20;;;;;;;0.10;0.10;;;;;;;22.84;27.22;100393.25;5095663;28;20130;-61
2023/04/11 10:07:01;;;;;;;0.10;0.10;;;;;;;22.98;27.22;100394.97;5095236;28;20140;-63
2023/04/11 10:09:31;;;;;;;0.15;0.15;;;;;;;23.31;26.71;100395.75;5095582;28;20031;-63
2023/04/11 10:11:59;;;;;;;0.13;0.13;;;;;;;22.03;28.18;100398.69;5096464;28;20035;-62
2023/04/11 10:14:51;;;;;;;0.13;0.13;;;;;;;21.92;28.14;100394.03;5095790;28;20498;-64
2023/04/11 10:17:19;;;;;;;0.13;0.13;;;;;;;21.43;29.64;100393.78;5090408;28;20457;-62
2023/04/11 10:19:45;;;;;;;0.20;0.20;;;;;;;21.78;28.94;100377.31;5113902;28;20367;-64
2023/04/11 10:22:39;;;;;;;0.10;0.10;;;;;;;21.68;29.54;100372.69;5095480;28;20172;-64
2023/04/11 10:25:22;;;;;;;0.20;0.20;;;;;;;21.19;30.80;100361.03;5095550;28;20059;-63
2023/04/11 10:28:02;;;;;;;0.10;0.10;;;;;;;22.22;29.63;100366.75;5096029;28;20036;-63
2023/04/11 10:30:40;;;;;;;0.10;0.10;;;;;;;22.28;29.05;100352.84;5113462;28;20023;-63
2023/04/11 10:33:17;;;;;;;0.10;0.10;;;;;;;22.75;29.10;100365.50;5095491;28;20143;-62
2023/04/11 10:35:56;;;;;;;0.20;0.20;;;;;;;22.49;29.14;100358.03;5095963;28;20028;-63
2023/04/11 10:38:50;;;;;;;0.20;0.20;;;;;;;22.13;30.34;100361.66;5095649;28;20478;-63
2023/04/11 10:41:21;;;;;;;0.20;0.20;;;;;;;22.50;30.07;100351.13;5095789;28;20138;-63
2023/04/11 10:43:47;;;;;;;0.20;0.20;;;;;;;22.59;29.75;100353.34;5095441;28;20034;-62
2023/04/11 10:46:24;;;;;;;0.20;0.20;;;;;;;22.68;29.57;100351.47;5095754;28;20118;-64
2023/04/11 10:49:01;;;;;;;0.20;0.20;;;;;;;22.48;30.62;100337.41;5113783;28;20140;-63
2023/04/11 10:51:33;;;;;;;0.20;0.20;;;;;;;22.48;30.73;100342.28;5113749;28;20023;-63
2023/04/11 10:54:02;;;;;;;0.20;0.20;;;;;;;21.08;34.03;100349.09;5095258;28;20035;-63
2023/04/11 10:56:45;;;;;;;0.20;0.20;;;;;;;21.41;33.53;100344.47;5113612;28;20374;-63
2023/04/11 10:59:29;;;;;;;0.10;0.10;;;;;;;20.75;35.08;100331.88;5095148;28;20454;-63
2023/04/11 11:02:00;;;;;;;0.10;0.10;;;;;;;20.48;35.71;100312.13;5095201;28;20032;-63
2023/04/11 11:04:39;;;;;;;0.20;0.20;;;;;;;20.81;35.74;100329.34;5095163;28;20035;-63
2023/04/11 11:07:06;;;;;;;0.20;0.20;;;;;;;20.76;35.83;100336.31;5095742;28;20160;-63
2023/04/11 11:09:34;;;;;;;0.10;0.10;;;;;;;20.21;36.75;100322.59;5095703;28;20030;-63
2023/04/11 11:12:09;;;;;;;0.10;0.10;;;;;;;20.65;35.35;100293.28;5113268;28;20031;-64
2023/04/11 11:14:35;;;;;;;0.20;0.20;;;;;;;20.25;36.75;100318.50;5095098;28;20211;-65
2023/04/11 11:17:04;;;;;;;0.20;0.20;;;;;;;19.46;37.78;100310.22;5095776;28;20027;-63
2023/04/11 11:19:32;;;;;;;0.20;0.20;;;;;;;19.65;38.82;100300.31;5098213;28;20024;-63
2023/04/11 11:22:06;;;;;;;0.20;0.20;;;;;;;19.47;39.37;100305.38;5098832;28;20032;-64
2023/04/11 11:24:35;;;;;;;0.20;0.20;;;;;;;19.34;39.30;100302.28;5098748;28;20031;-64
2023/04/11 11:27:02;;;;;;;0.20;0.20;;;;;;;18.51;41.09;100319.13;5098845;28;20030;-64
2023/04/11 11:29:33;;;;;;;0.20;0.20;;;;;;;19.03;40.54;100312.69;5099235;28;20024;-64
2023/04/11 11:32:04;;;;;;;0.20;0.20;;;;;;;19.38;40.35;100303.81;5098701;28;20028;-63
2023/04/11 11:34:31;;;;;;;0.20;0.20;;;;;;;19.06;40.95;100303.38;5116944;28;20024;-63
2023/04/11 11:37:03;;;;;;;0.20;0.20;;;;;;;19.37;40.49;100304.25;5099150;28;20046;-63
2023/04/11 11:39:32;;;;;;;0.20;0.20;;;;;;;19.19;40.73;100289.56;5098451;28;20470;-63
2023/04/11 11:42:00;;;;;;;0.20;0.20;;;;;;;18.96;40.46;100268.44;5116937;28;20031;-63